Time;durP1;ratioP1;P1;durP2;ratioP2;P2;SDS_P1;SDS_P2;PMS_P1;PMS_P2;Temp;Humidity;BMP_temperature;BMP_pressure;BME280_temperature;BME280_humidity;BME280_pressure;Samples;Min_cycle;Max_cycle;Signal;HPM_P1;HPM_P2
2022/11/01 00:01:24;;;;;;;7.82;2.28;;;;;;;;;;5052886;28;20114;-89
2022/11/01 00:03:52;;;;;;;2.08;1.98;;;;;;;;;;5052942;28;20049;-89
2022/11/01 00:06:18;;;;;;;2.58;2.38;;;;;;;;;;5053270;28;20052;-90
2022/11/01 00:08:45;;;;;;;1.60;1.50;;;;;;;;;;5053358;28;20463;-91
2022/11/01 00:11:12;;;;;;;4.15;1.80;;;;;;;;;;5053467;28;20049;-91
2022/11/01 00:13:39;;;;;;;3.45;3.25;;;;;;;;;;5053071;28;20103;-91
2022/11/01 00:16:06;;;;;;;1.55;1.45;;;;;;;;;;5053636;28;20103;-92
2022/11/01 00:18:33;;;;;;;3.42;3.17;;;;;;;;;;5052888;28;20118;-91
2022/11/01 00:21:00;;;;;;;1.90;1.80;;;;;;;;;;5053352;28;20118;-91
2022/11/01 00:23:27;;;;;;;3.47;1.55;;;;;;;;;;5053257;28;20748;-91
2022/11/01 00:25:53;;;;;;;3.97;2.88;;;;;;;;;;5053211;28;20099;-91
2022/11/01 00:28:20;;;;;;;2.00;1.85;;;;;;;;;;5053264;28;20386;-91
2022/11/01 00:30:46;;;;;;;2.15;1.52;;;;;;;;;;5053424;28;20059;-91
2022/11/01 00:33:13;;;;;;;1.05;0.95;;;;;;;;;;5053101;28;20049;-91
2022/11/01 00:35:39;;;;;;;1.58;1.48;;;;;;;;;;5053147;28;20049;-89
2022/11/01 00:38:07;;;;;;;1.45;1.35;;;;;;;;;;5053172;28;20041;-90
2022/11/01 00:40:34;;;;;;;3.45;2.17;;;;;;;;;;5056791;28;20049;-91
2022/11/01 00:43:00;;;;;;;1.83;1.38;;;;;;;;;;5057186;28;20045;-90
2022/11/01 00:45:27;;;;;;;1.73;1.70;;;;;;;;;;5072345;28;20045;-90
2022/11/01 00:47:53;;;;;;;1.23;1.20;;;;;;;;;;5073799;28;20447;-91
2022/11/01 00:50:20;;;;;;;1.65;1.27;;;;;;;;;;5056306;28;20092;-90
2022/11/01 00:52:46;;;;;;;1.38;1.30;;;;;;;;;;5056857;28;20102;-92
2022/11/01 00:55:14;;;;;;;0.80;0.80;;;;;;;;;;5056656;28;20497;-91
2022/11/01 00:57:41;;;;;;;2.40;2.30;;;;;;;;;;5056877;28;20053;-92
2022/11/01 01:00:10;;;;;;;1.63;1.52;;;;;;;;;;5056603;28;20041;-90
2022/11/01 01:02:36;;;;;;;1.10;1.08;;;;;;;;;;5056169;28;20049;-90
2022/11/01 01:05:03;;;;;;;1.48;1.42;;;;;;;;;;5056034;28;20049;-90
2022/11/01 01:07:29;;;;;;;1.52;1.50;;;;;;;;;;5056570;28;20114;-90
2022/11/01 01:09:56;;;;;;;1.40;1.38;;;;;;;;;;5056164;28;20050;-91
2022/11/01 01:12:24;;;;;;;2.58;2.38;;;;;;;;;;5056532;28;20049;-92
2022/11/01 01:14:50;;;;;;;2.13;2.00;;;;;;;;;;5056616;28;20049;-92
2022/11/01 01:17:17;;;;;;;2.30;1.27;;;;;;;;;;5068194;28;20557;-91
2022/11/01 01:19:44;;;;;;;1.58;1.23;;;;;;;;;;5075879;28;20044;-91
2022/11/01 01:22:10;;;;;;;1.50;1.40;;;;;;;;;;5076118;28;20045;-92
2022/11/01 01:24:37;;;;;;;4.25;1.75;;;;;;;;;;5076071;28;20048;-94
2022/11/01 01:27:04;;;;;;;1.60;1.10;;;;;;;;;;5076077;28;20052;-92
2022/11/01 01:29:32;;;;;;;2.00;1.50;;;;;;;;;;5076610;28;20102;-92
2022/11/01 01:31:58;;;;;;;4.78;2.58;;;;;;;;;;5076525;28;20052;-92
2022/11/01 01:34:25;;;;;;;1.52;1.42;;;;;;;;;;5076445;28;20045;-92
2022/11/01 01:36:51;;;;;;;2.60;2.13;;;;;;;;;;5075887;28;20102;-91
2022/11/01 01:39:18;;;;;;;4.88;1.77;;;;;;;;;;5075781;28;20044;-92
2022/11/01 01:41:56;;;;;;;2.63;2.53;;;;;;;;;;5076029;28;20048;-93
2022/11/01 01:44:55;;;;;;;1.98;1.42;;;;;;;;;;5075965;28;20439;-93
2022/11/01 01:47:24;;;;;;;1.10;1.08;;;;;;;;;;5013697;28;20057;-92
2022/11/01 01:49:53;;;;;;;2.78;2.58;;;;;;;;;;5012756;28;20042;-92
2022/11/01 01:52:20;;;;;;;2.05;1.95;;;;;;;;;;5013821;28;20057;-93
2022/11/01 01:54:47;;;;;;;3.88;1.25;;;;;;;;;;5013830;28;20057;-94
2022/11/01 01:57:15;;;;;;;0.73;0.73;;;;;;;;;;5013768;28;20053;-94
2022/11/01 01:59:41;;;;;;;2.60;2.08;;;;;;;;;;5013674;28;20201;-92
2022/11/01 02:02:08;;;;;;;1.10;0.90;;;;;;;;;;5013523;28;20107;-91
2022/11/01 02:04:37;;;;;;;2.45;2.10;;;;;;;;;;5013397;28;20113;-91
2022/11/01 02:07:04;;;;;;;1.02;1.02;;;;;;;;;;5013445;28;20053;-92
2022/11/01 02:09:31;;;;;;;1.83;1.73;;;;;;;;;;5013358;28;20100;-92
2022/11/01 02:11:58;;;;;;;1.50;1.42;;;;;;;;;;5013694;28;20054;-92
2022/11/01 02:14:24;;;;;;;1.52;1.42;;;;;;;;;;5013399;28;20061;-92
2022/11/01 02:16:55;;;;;;;1.38;1.33;;;;;;;;;;5013307;28;20490;-92
2022/11/01 02:19:42;;;;;;;1.75;1.60;;;;;;;;;;5070851;28;20053;-91
2022/11/01 02:22:13;;;;;;;1.70;1.60;;;;;;;;;;5069465;28;20082;-90
2022/11/01 02:24:58;;;;;;;2.42;1.85;;;;;;;;;;5074802;28;20078;-90
2022/11/01 02:27:28;;;;;;;2.53;2.42;;;;;;;;;;5074827;28;20049;-90
2022/11/01 02:30:10;;;;;;;1.75;1.65;;;;;;;;;;5074849;28;20049;-95
2022/11/01 02:32:51;;;;;;;1.13;1.13;;;;;;;;;;5054863;28;20455;-94
2022/11/01 02:35:23;;;;;;;9.65;1.92;;;;;;;;;;5042127;28;20103;-94
2022/11/01 02:37:53;;;;;;;1.20;1.17;;;;;;;;;;5054934;28;20051;-94
2022/11/01 02:40:23;;;;;;;2.28;1.02;;;;;;;;;;5054928;28;20056;-91
2022/11/01 02:42:52;;;;;;;2.70;2.45;;;;;;;;;;5054426;28;20053;-90
2022/11/01 02:45:27;;;;;;;1.65;1.55;;;;;;;;;;5054605;28;20045;-90
2022/11/01 02:47:55;;;;;;;3.15;3.05;;;;;;;;;;5054429;28;20049;-90
2022/11/01 02:50:23;;;;;;;1.42;1.35;;;;;;;;;;5054382;28;20107;-89
2022/11/01 02:52:50;;;;;;;8.65;1.40;;;;;;;;;;5054175;28;20049;-89
2022/11/01 02:55:28;;;;;;;1.92;1.83;;;;;;;;;;5054186;28;20451;-90
2022/11/01 02:57:55;;;;;;;1.98;1.08;;;;;;;;;;5054447;28;20053;-90
2022/11/01 03:00:24;;;;;;;0.80;0.80;;;;;;;;;;5054349;28;20098;-90
2022/11/01 03:02:52;;;;;;;2.08;1.92;;;;;;;;;;5053443;28;20049;-89
2022/11/01 03:05:21;;;;;;;1.98;1.88;;;;;;;;;;5053927;28;20049;-90
2022/11/01 03:07:51;;;;;;;1.98;1.70;;;;;;;;;;5053879;28;20049;-90
2022/11/01 03:10:20;;;;;;;4.53;1.92;;;;;;;;;;5053807;28;20455;-90
2022/11/01 03:12:51;;;;;;;0.77;0.77;;;;;;;;;;5054764;28;20057;-90
2022/11/01 03:15:20;;;;;;;1.90;1.80;;;;;;;;;;5054023;28;20110;-90
2022/11/01 03:17:50;;;;;;;2.50;2.38;;;;;;;;;;5054007;28;20057;-92
2022/11/01 03:20:21;;;;;;;3.53;2.55;;;;;;;;;;5054084;28;20136;-91
2022/11/01 03:22:51;;;;;;;7.10;3.20;;;;;;;;;;5053860;28;20732;-93
2022/11/01 03:28:14;;;;;;;1.70;1.63;;;;;;;;;;5047200;28;20112;-93
2022/11/01 03:30:43;;;;;;;1.58;1.48;;;;;;;;;;5053991;28;20053;-93
2022/11/01 03:33:11;;;;;;;2.20;1.85;;;;;;;;;;5053961;28;20053;-93
2022/11/01 03:35:39;;;;;;;1.02;1.02;;;;;;;;;;5053988;28;20041;-92
2022/11/01 03:38:06;;;;;;;2.05;1.95;;;;;;;;;;5054306;28;20048;-92
2022/11/01 03:40:35;;;;;;;1.23;1.10;;;;;;;;;;5053885;28;20052;-92
2022/11/01 03:43:03;;;;;;;1.70;1.60;;;;;;;;;;5053635;28;20053;-92
2022/11/01 03:45:31;;;;;;;1.75;1.65;;;;;;;;;;5053293;28;20045;-91
2022/11/01 03:47:57;;;;;;;2.83;2.63;;;;;;;;;;5053212;28;20053;-89
2022/11/01 03:50:25;;;;;;;5.57;2.47;;;;;;;;;;5053574;28;20049;-92
2022/11/01 03:52:51;;;;;;;2.70;2.40;;;;;;;;;;5053688;28;20056;-91
2022/11/01 03:55:19;;;;;;;1.02;0.93;;;;;;;;;;5053160;28;20546;-91
2022/11/01 03:57:46;;;;;;;0.93;0.93;;;;;;;;;;5053507;28;20465;-90
2022/11/01 04:00:16;;;;;;;2.30;2.10;;;;;;;;;;5053503;28;20098;-91
2022/11/01 04:02:43;;;;;;;1.73;1.65;;;;;;;;;;5053533;28;20049;-92
2022/11/01 04:05:09;;;;;;;2.35;2.25;;;;;;;;;;5053416;28;20090;-91
2022/11/01 04:07:36;;;;;;;3.05;2.47;;;;;;;;;;5053159;28;20493;-90
2022/11/01 04:10:02;;;;;;;2.80;2.63;;;;;;;;;;5053025;28;20338;-91
2022/11/01 04:12:29;;;;;;;3.40;2.67;;;;;;;;;;5052737;28;20099;-90
2022/11/01 04:20:33;;;;;;;0.50;0.50;;;;;;;;;;5053191;28;19915;-93
2022/11/01 04:23:00;;;;;;;1.67;1.58;;;;;;;;;;5053376;28;20041;-94
2022/11/01 04:25:27;;;;;;;1.00;1.00;;;;;;;;;;5053290;28;20516;-93
2022/11/01 04:27:55;;;;;;;3.30;2.10;;;;;;;;;;5053451;28;20420;-91
2022/11/01 04:30:21;;;;;;;1.15;1.13;;;;;;;;;;5052910;28;20056;-92
2022/11/01 04:32:48;;;;;;;2.40;2.30;;;;;;;;;;5052984;28;20049;-92
2022/11/01 04:35:14;;;;;;;1.63;1.52;;;;;;;;;;5053362;28;20056;-93
2022/11/01 04:37:42;;;;;;;2.25;2.15;;;;;;;;;;5052966;28;20045;-93
2022/11/01 04:40:09;;;;;;;1.50;1.40;;;;;;;;;;5072675;28;20044;-93
2022/11/01 04:42:36;;;;;;;1.05;1.02;;;;;;;;;;5072005;28;20074;-93
2022/11/01 04:45:03;;;;;;;1.20;1.15;;;;;;;;;;5053102;28;20057;-91
2022/11/01 04:47:30;;;;;;;1.33;1.27;;;;;;;;;;5054439;28;20037;-90
2022/11/01 04:49:56;;;;;;;1.52;1.42;;;;;;;;;;5053111;28;20045;-90
2022/11/01 04:52:23;;;;;;;1.73;1.67;;;;;;;;;;5052985;28;20099;-90
2022/11/01 04:54:51;;;;;;;0.95;0.95;;;;;;;;;;5052945;28;20111;-90
2022/11/01 04:57:23;;;;;;;3.00;2.63;;;;;;;;;;5052728;28;20111;-91
2022/11/01 04:59:49;;;;;;;6.45;6.15;;;;;;;;;;5052451;28;20049;-91
2022/11/01 05:02:16;;;;;;;2.45;2.25;;;;;;;;;;5052586;28;20095;-90
2022/11/01 05:04:42;;;;;;;1.90;1.80;;;;;;;;;;5052879;28;20099;-91
2022/11/01 05:07:09;;;;;;;1.60;1.35;;;;;;;;;;5052678;28;20053;-92
2022/11/01 05:09:35;;;;;;;3.28;2.88;;;;;;;;;;5052509;28;20041;-92
2022/11/01 05:12:03;;;;;;;3.13;2.30;;;;;;;;;;5053126;28;20052;-94
2022/11/01 05:14:30;;;;;;;1.75;1.65;;;;;;;;;;5053242;28;20049;-94
2022/11/01 05:16:57;;;;;;;1.92;1.83;;;;;;;;;;5054410;28;20608;-94
2022/11/01 05:19:23;;;;;;;2.05;1.95;;;;;;;;;;5053540;28;20516;-90
2022/11/01 05:21:50;;;;;;;3.00;2.75;;;;;;;;;;5054411;28;20053;-92
2022/11/01 05:24:17;;;;;;;1.33;1.30;;;;;;;;;;5052652;28;20104;-91
2022/11/01 05:26:43;;;;;;;2.95;2.75;;;;;;;;;;5056462;28;20060;-91
2022/11/01 05:29:11;;;;;;;2.70;2.60;;;;;;;;;;5075762;28;20135;-90
2022/11/01 05:31:38;;;;;;;2.10;1.67;;;;;;;;;;5076192;28;20044;-91
2022/11/01 05:34:04;;;;;;;3.40;3.22;;;;;;;;;;5075764;28;20455;-90
2022/11/01 05:36:31;;;;;;;2.25;1.92;;;;;;;;;;5075896;28;20052;-91
2022/11/01 05:38:58;;;;;;;1.73;1.63;;;;;;;;;;5076019;28;20122;-91
2022/11/01 05:41:24;;;;;;;1.77;1.65;;;;;;;;;;5075664;28;20094;-91
2022/11/01 05:43:51;;;;;;;1.95;1.83;;;;;;;;;;5075928;28;20488;-91
2022/11/01 05:46:19;;;;;;;4.20;3.33;;;;;;;;;;5065187;28;20041;-91
2022/11/01 05:48:46;;;;;;;1.98;1.88;;;;;;;;;;5055760;28;20107;-92
2022/11/01 05:51:12;;;;;;;2.50;2.33;;;;;;;;;;5065235;28;20048;-92
2022/11/01 05:53:39;;;;;;;2.97;2.85;;;;;;;;;;5075107;28;20496;-92
2022/11/01 05:56:05;;;;;;;3.03;2.85;;;;;;;;;;5069042;28;20091;-91
2022/11/01 05:58:32;;;;;;;3.47;3.28;;;;;;;;;;5075455;28;20048;-91
2022/11/01 06:00:58;;;;;;;2.25;2.13;;;;;;;;;;5075484;28;20052;-91
2022/11/01 06:03:26;;;;;;;2.15;1.90;;;;;;;;;;5075963;28;20048;-91
2022/11/01 06:05:53;;;;;;;3.78;3.55;;;;;;;;;;5069066;28;20045;-90
2022/11/01 06:08:20;;;;;;;3.22;3.00;;;;;;;;;;5054864;28;20044;-91
2022/11/01 06:10:46;;;;;;;4.38;4.00;;;;;;;;;;5055066;28;20455;-91
2022/11/01 06:13:13;;;;;;;1.77;1.65;;;;;;;;;;5055124;28;20049;-91
2022/11/01 06:15:39;;;;;;;2.60;2.40;;;;;;;;;;5055201;28;20102;-91
2022/11/01 06:18:06;;;;;;;3.28;3.08;;;;;;;;;;5065841;28;20052;-91
2022/11/01 06:20:35;;;;;;;3.47;3.30;;;;;;;;;;5075139;28;20044;-91
2022/11/01 06:23:08;;;;;;;3.15;2.80;;;;;;;;;;5074878;28;20103;-91
2022/11/01 06:25:35;;;;;;;4.47;4.20;;;;;;;;;;5074499;28;20049;-90
2022/11/01 06:28:02;;;;;;;4.97;4.53;;;;;;;;;;5071017;28;20492;-91
2022/11/01 06:30:28;;;;;;;2.60;2.47;;;;;;;;;;5067683;28;20044;-90
2022/11/01 06:32:58;;;;;;;4.30;3.90;;;;;;;;;;5054610;28;20053;-91
2022/11/01 06:35:26;;;;;;;4.22;3.42;;;;;;;;;;5054839;28;20451;-90
2022/11/01 06:37:54;;;;;;;14.10;2.97;;;;;;;;;;5073372;28;20044;-90
2022/11/01 06:40:21;;;;;;;3.58;3.28;;;;;;;;;;5074595;28;20049;-91
2022/11/01 06:42:47;;;;;;;4.78;4.50;;;;;;;;;;5074479;28;20524;-92
2022/11/01 06:45:14;;;;;;;2.95;2.75;;;;;;;;;;5074320;28;20109;-91
2022/11/01 06:47:45;;;;;;;3.00;2.80;;;;;;;;;;5074432;28;20055;-91
2022/11/01 06:50:12;;;;;;;2.53;2.40;;;;;;;;;;5074388;28;20488;-93
2022/11/01 06:52:38;;;;;;;5.70;3.75;;;;;;;;;;5074496;28;20056;-92
2022/11/01 06:55:07;;;;;;;4.53;3.13;;;;;;;;;;5073884;28;20098;-92
2022/11/01 06:57:33;;;;;;;2.65;2.45;;;;;;;;;;5074221;28;20044;-92
2022/11/01 07:00:00;;;;;;;3.13;2.92;;;;;;;;;;5073804;28;20098;-92
2022/11/01 07:02:26;;;;;;;3.97;3.63;;;;;;;;;;5074375;28;20044;-92
2022/11/01 07:04:53;;;;;;;3.92;3.13;;;;;;;;;;5074225;28;20049;-92
2022/11/01 07:07:19;;;;;;;5.40;2.72;;;;;;;;;;5073876;28;20056;-92
2022/11/01 07:09:46;;;;;;;5.78;3.55;;;;;;;;;;5074039;28;20550;-92
2022/11/01 07:12:14;;;;;;;7.35;2.58;;;;;;;;;;5073883;28;20098;-92
2022/11/01 07:14:40;;;;;;;5.70;4.55;;;;;;;;;;5073581;28;20378;-92
2022/11/01 07:17:07;;;;;;;5.07;3.30;;;;;;;;;;5073843;28;20674;-92
2022/11/01 07:19:33;;;;;;;3.45;3.25;;;;;;;;;;5068534;28;20056;-92
2022/11/01 07:22:00;;;;;;;4.18;3.88;;;;;;;;;;5068533;28;20044;-92
2022/11/01 07:24:26;;;;;;;6.82;3.00;;;;;;;;;;5073971;28;20394;-93
2022/11/01 07:26:53;;;;;;;2.55;2.05;;;;;;;;;;5064002;28;20045;-92
2022/11/01 07:29:20;;;;;;;3.78;2.60;;;;;;;;;;5079788;28;20866;-92
2022/11/01 07:31:47;;;;;;;3.28;3.08;;;;;;;;;;5073814;28;20052;-92
2022/11/01 07:34:14;;;;;;;1.95;1.35;;;;;;;;;;5073368;28;20484;-91
2022/11/01 07:36:40;;;;;;;2.97;2.65;;;;;;;;;;5070651;28;20056;-91
2022/11/01 07:39:07;;;;;;;5.82;3.08;;;;;;;;;;5071586;28;20047;-92
2022/11/01 07:41:33;;;;;;;3.38;3.17;;;;;;;;;;5087458;28;20120;-92
2022/11/01 07:44:00;;;;;;;2.85;2.65;;;;;;;;;;5073286;28;20049;-91
2022/11/01 07:46:29;;;;;;;3.05;2.75;;;;;;;;;;5071028;28;20044;-89
2022/11/01 07:48:55;;;;;;;4.00;3.70;;;;;;;;;;5065225;28;20056;-89
2022/11/01 07:51:22;;;;;;;4.25;3.85;;;;;;;;;;5075489;28;20459;-92
2022/11/01 07:53:48;;;;;;;3.50;3.30;;;;;;;;;;5073601;28;20052;-90
2022/11/01 07:56:15;;;;;;;5.15;3.35;;;;;;;;;;5082071;28;20046;-89
2022/11/01 07:58:42;;;;;;;5.15;4.80;;;;;;;;;;5057714;28;20106;-89
2022/11/01 08:01:09;;;;;;;3.85;3.65;;;;;;;;;;5070184;28;20053;-90
2022/11/01 08:03:37;;;;;;;4.68;4.28;;;;;;;;;;5055898;28;20110;-92
2022/11/01 08:06:04;;;;;;;5.70;4.68;;;;;;;;;;5052898;28;20049;-91
2022/11/01 08:08:30;;;;;;;4.03;3.80;;;;;;;;;;5066771;28;20409;-89
2022/11/01 08:10:59;;;;;;;4.50;4.18;;;;;;;;;;5068364;28;20048;-90
2022/11/01 08:13:25;;;;;;;6.28;3.50;;;;;;;;;;5053018;28;20057;-90
2022/11/01 08:15:52;;;;;;;4.18;3.97;;;;;;;;;;5052996;28;20451;-91
2022/11/01 08:18:21;;;;;;;3.92;3.60;;;;;;;;;;5052951;28;20114;-92
2022/11/01 08:20:49;;;;;;;3.65;3.45;;;;;;;;;;5055301;28;20139;-93
2022/11/01 08:23:15;;;;;;;5.57;4.28;;;;;;;;;;5062734;28;20060;-92
2022/11/01 08:25:42;;;;;;;3.33;2.97;;;;;;;;;;5075542;28;20044;-92
2022/11/01 08:28:10;;;;;;;3.65;3.35;;;;;;;;;;5071214;28;20052;-92
2022/11/01 08:30:38;;;;;;;3.05;2.85;;;;;;;;;;5058505;28;20382;-92
2022/11/01 08:33:04;;;;;;;4.80;4.53;;;;;;;;;;5071424;28;20052;-92
2022/11/01 08:35:32;;;;;;;8.57;3.28;;;;;;;;;;5083919;28;20447;-93
2022/11/01 08:38:01;;;;;;;6.82;6.25;;;;;;;;;;5054398;28;20450;-92
2022/11/01 08:40:28;;;;;;;5.75;5.25;;;;;;;;;;5068805;28;20443;-92
2022/11/01 08:42:55;;;;;;;4.60;4.28;;;;;;;;;;5059078;28;20068;-92
2022/11/01 08:45:21;;;;;;;5.45;4.65;;;;;;;;;;5052733;28;20044;-94
2022/11/01 08:47:48;;;;;;;4.07;3.78;;;;;;;;;;5052777;28;20045;-92
2022/11/01 08:50:15;;;;;;;3.90;3.58;;;;;;;;;;5053312;28;20114;-92
2022/11/01 08:52:42;;;;;;;3.45;2.95;;;;;;;;;;5053898;28;20095;-90
2022/11/01 08:55:10;;;;;;;4.57;3.47;;;;;;;;;;5052461;28;20049;-90
2022/11/01 08:57:37;;;;;;;6.40;3.75;;;;;;;;;;5053255;28;20063;-93
2022/11/01 09:00:05;;;;;;;5.43;3.35;;;;;;;;;;5073149;28;20045;-93
2022/11/01 09:02:32;;;;;;;5.15;4.72;;;;;;;;;;5076528;28;20047;-94
2022/11/01 09:05:01;;;;;;;7.53;4.30;;;;;;;;;;5063897;28;20057;-92
2022/11/01 09:07:28;;;;;;;3.47;3.08;;;;;;;;;;5062238;28;20044;-93
2022/11/01 09:09:54;;;;;;;4.55;3.17;;;;;;;;;;5077551;28;20049;-91
2022/11/01 09:12:22;;;;;;;4.65;3.78;;;;;;;;;;5056643;28;20114;-90
2022/11/01 09:14:48;;;;;;;4.97;4.22;;;;;;;;;;5056316;28;20079;-92
2022/11/01 09:17:15;;;;;;;5.03;4.70;;;;;;;;;;5062946;28;20435;-90
2022/11/01 09:19:41;;;;;;;3.60;3.30;;;;;;;;;;5075734;28;20052;-91
2022/11/01 09:22:09;;;;;;;3.67;3.47;;;;;;;;;;5072245;28;20057;-91
2022/11/01 09:24:35;;;;;;;3.90;3.58;;;;;;;;;;5070235;28;20106;-91
2022/11/01 09:27:02;;;;;;;5.10;3.38;;;;;;;;;;5060697;28;20053;-91
2022/11/01 09:29:30;;;;;;;2.35;2.25;;;;;;;;;;5064212;28;20127;-91
2022/11/01 09:31:56;;;;;;;6.63;4.40;;;;;;;;;;5072072;28;20056;-92
2022/11/01 09:34:23;;;;;;;4.35;4.00;;;;;;;;;;5081452;28;20052;-93
2022/11/01 09:36:49;;;;;;;3.63;3.33;;;;;;;;;;5074702;28;20098;-93
2022/11/01 09:39:19;;;;;;;3.50;3.20;;;;;;;;;;5069679;28;20052;-94
2022/11/01 09:41:48;;;;;;;8.10;4.50;;;;;;;;;;5055804;28;20072;-93
2022/11/01 09:44:16;;;;;;;6.97;4.15;;;;;;;;;;5055885;28;20098;-93
2022/11/01 09:46:45;;;;;;;4.22;3.92;;;;;;;;;;5055675;28;20107;-92
2022/11/01 09:49:16;;;;;;;4.88;3.90;;;;;;;;;;5066542;28;20048;-92
2022/11/01 09:51:42;;;;;;;5.80;3.30;;;;;;;;;;5075588;28;20101;-92
2022/11/01 09:54:10;;;;;;;6.20;5.80;;;;;;;;;;5075760;28;20113;-90
2022/11/01 09:56:40;;;;;;;3.15;2.97;;;;;;;;;;5075408;28;20063;-92
2022/11/01 09:59:11;;;;;;;7.53;3.35;;;;;;;;;;5075429;28;20055;-93
2022/11/01 10:01:41;;;;;;;8.85;4.53;;;;;;;;;;5075649;28;20135;-93
2022/11/01 10:04:25;;;;;;;4.63;4.28;;;;;;;;;;5075396;28;20048;-92
2022/11/01 10:06:57;;;;;;;3.88;3.58;;;;;;;;;;5074594;28;20557;-92
2022/11/01 10:09:30;;;;;;;6.32;5.72;;;;;;;;;;5075108;28;20466;-93
2022/11/01 10:12:03;;;;;;;4.60;3.65;;;;;;;;;;5082088;28;20059;-93
2022/11/01 10:14:39;;;;;;;3.47;3.25;;;;;;;;;;5074875;28;20703;-93
2022/11/01 10:17:11;;;;;;;4.05;3.65;;;;;;;;;;5077454;28;20122;-92
2022/11/01 10:19:39;;;;;;;4.55;4.25;;;;;;;;;;5054998;28;20051;-92
2022/11/01 10:22:11;;;;;;;5.15;4.85;;;;;;;;;;5055283;28;20053;-93
2022/11/01 10:24:41;;;;;;;4.90;4.57;;;;;;;;;;5055115;28;20094;-93
2022/11/01 10:27:11;;;;;;;6.78;5.45;;;;;;;;;;5056792;28;20044;-93
2022/11/01 10:29:41;;;;;;;5.45;5.03;;;;;;;;;;5075037;28;20531;-93
2022/11/01 10:32:15;;;;;;;5.45;5.07;;;;;;;;;;5073289;28;20044;-92
2022/11/01 10:34:42;;;;;;;6.78;4.80;;;;;;;;;;5054733;28;20055;-93
2022/11/01 10:37:16;;;;;;;5.03;4.72;;;;;;;;;;5054571;28;20492;-92
2022/11/01 10:39:47;;;;;;;6.80;3.83;;;;;;;;;;5054835;28;20056;-92
2022/11/01 10:42:16;;;;;;;6.35;5.80;;;;;;;;;;5054578;28;20107;-92
2022/11/01 10:44:45;;;;;;;3.60;3.40;;;;;;;;;;5054405;28;20041;-92
2022/11/01 10:47:13;;;;;;;9.52;5.43;;;;;;;;;;5054304;28;20063;-92
2022/11/01 10:49:44;;;;;;;5.78;5.47;;;;;;;;;;5054367;28;20056;-91
2022/11/01 10:52:13;;;;;;;7.05;5.53;;;;;;;;;;5057264;28;20087;-91
2022/11/01 10:54:43;;;;;;;4.80;4.50;;;;;;;;;;5064915;28;20071;-89
2022/11/01 10:57:09;;;;;;;;;;;;;;;;;;5071913;28;20052;-89
2022/11/01 10:59:40;;;;;;;10.13;5.05;;;;;;;;;;5066966;28;19982;-90
2022/11/01 11:02:12;;;;;;;6.13;5.63;;;;;;;;;;5085575;28;20063;-89
2022/11/01 11:04:39;;;;;;;5.47;5.07;;;;;;;;;;5054274;28;20049;-89
2022/11/01 11:07:11;;;;;;;9.38;7.90;;;;;;;;;;5059049;28;20091;-88
2022/11/01 11:09:38;;;;;;;5.28;4.78;;;;;;;;;;5067155;28;20048;-88
2022/11/01 11:12:08;;;;;;;4.28;3.88;;;;;;;;;;5090395;28;20044;-91
2022/11/01 11:14:34;;;;;;;6.57;5.55;;;;;;;;;;5065363;28;20044;-92
2022/11/01 11:17:02;;;;;;;7.13;6.47;;;;;;;;;;5068830;28;20143;-89
2022/11/01 11:19:32;;;;;;;5.30;5.00;;;;;;;;;;5079160;28;20063;-91
2022/11/01 11:21:59;;;;;;;;;;;;;;;;;;5058749;28;20099;-90
2022/11/01 11:24:30;;;;;;;4.68;4.03;;;;;;;;;;5076315;28;19920;-90
2022/11/01 11:26:57;;;;;;;9.23;5.93;;;;;;;;;;5073489;28;20052;-90
2022/11/01 11:29:32;;;;;;;4.85;4.45;;;;;;;;;;5064766;28;20106;-90
2022/11/01 11:31:59;;;;;;;5.45;5.03;;;;;;;;;;5065829;28;20488;-89
2022/11/01 11:34:28;;;;;;;4.63;4.22;;;;;;;;;;5055806;28;20485;-89
2022/11/01 11:36:55;;;;;;;5.28;4.85;;;;;;;;;;5068623;28;20140;-89
2022/11/01 11:39:25;;;;;;;10.13;9.52;;;;;;;;;;5056589;28;20049;-90
2022/11/01 11:41:52;;;;;;;6.10;5.32;;;;;;;;;;5062556;28;20139;-90
2022/11/01 11:44:37;;;;;;;5.60;4.70;;;;;;;;;;5073096;28;20044;-90
2022/11/01 11:47:05;;;;;;;5.88;5.50;;;;;;;;;;5073079;28;20106;-89
2022/11/01 11:49:31;;;;;;;8.45;7.82;;;;;;;;;;5055927;28;20049;-90
2022/11/01 11:51:58;;;;;;;6.63;6.00;;;;;;;;;;5056054;28;20143;-89
2022/11/01 11:54:27;;;;;;;6.65;5.88;;;;;;;;;;5073466;28;20127;-90
2022/11/01 11:57:07;;;;;;;9.13;8.63;;;;;;;;;;5072573;28;20072;-91
2022/11/01 11:59:34;;;;;;;6.40;5.53;;;;;;;;;;5085242;28;20113;-91
2022/11/01 12:02:02;;;;;;;6.70;6.00;;;;;;;;;;5080436;28;20122;-89
2022/11/01 12:04:31;;;;;;;8.82;8.07;;;;;;;;;;5078315;28;20069;-90
2022/11/01 12:06:58;;;;;;;5.75;5.40;;;;;;;;;;5084174;28;20068;-91
2022/11/01 12:09:45;;;;;;;8.75;8.18;;;;;;;;;;5061629;28;20512;-91
2022/11/01 12:12:18;;;;;;;6.75;6.30;;;;;;;;;;5065470;28;20048;-91
2022/11/01 12:14:45;;;;;;;9.60;9.00;;;;;;;;;;5074549;28;20106;-92
2022/11/01 12:17:23;;;;;;;7.50;7.13;;;;;;;;;;5063659;28;20051;-91
2022/11/01 12:19:52;;;;;;;11.48;10.93;;;;;;;;;;5052596;28;20451;-92
2022/11/01 12:22:19;;;;;;;10.60;9.60;;;;;;;;;;5052438;28;20517;-92
2022/11/01 12:24:48;;;;;;;6.97;6.57;;;;;;;;;;5072611;28;20130;-92
2022/11/01 12:27:15;;;;;;;6.25;5.88;;;;;;;;;;5064249;28;20049;-92
2022/11/01 12:29:46;;;;;;;7.13;6.72;;;;;;;;;;5059323;28;20048;-91
2022/11/01 12:32:14;;;;;;;8.38;7.57;;;;;;;;;;5071838;28;20045;-92
2022/11/01 12:34:41;;;;;;;12.23;11.70;;;;;;;;;;5078066;28;20052;-92
2022/11/01 12:37:13;;;;;;;7.88;7.28;;;;;;;;;;5077154;28;20385;-91
2022/11/01 12:39:44;;;;;;;9.98;9.18;;;;;;;;;;5080548;28;20048;-91
2022/11/01 12:42:14;;;;;;;8.93;8.23;;;;;;;;;;5076393;28;20110;-92
2022/11/01 12:44:42;;;;;;;11.98;11.25;;;;;;;;;;5076925;28;20561;-91
2022/11/01 12:47:14;;;;;;;9.27;8.63;;;;;;;;;;5076869;28;20057;-91
2022/11/01 12:49:45;;;;;;;6.57;5.93;;;;;;;;;;5061468;28;20049;-90
2022/11/01 12:52:16;;;;;;;8.25;7.82;;;;;;;;;;5060010;28;20737;-92
2022/11/01 12:54:44;;;;;;;6.32;5.97;;;;;;;;;;5066000;28;20398;-90
2022/11/01 12:57:15;;;;;;;10.05;9.32;;;;;;;;;;5076008;28;20504;-92
2022/11/01 12:59:42;;;;;;;8.88;8.27;;;;;;;;;;5076823;28;20557;-92
2022/11/01 13:02:20;;;;;;;6.70;6.20;;;;;;;;;;5071482;28;20037;-91
2022/11/01 13:04:50;;;;;;;8.85;8.35;;;;;;;;;;5056561;28;20107;-92
2022/11/01 13:07:25;;;;;;;10.70;10.13;;;;;;;;;;5062676;28;20142;-92
2022/11/01 13:10:01;;;;;;;8.52;6.63;;;;;;;;;;5059127;28;20048;-91
2022/11/01 13:12:34;;;;;;;7.93;7.35;;;;;;;;;;5056104;28;20473;-91
2022/11/01 13:15:05;;;;;;;7.38;5.78;;;;;;;;;;5073545;28;20102;-91
2022/11/01 13:17:35;;;;;;;9.73;8.65;;;;;;;;;;5076406;28;20119;-95
2022/11/01 13:20:09;;;;;;;6.55;6.03;;;;;;;;;;5077901;28;20058;-93
2022/11/01 13:22:44;;;;;;;8.13;7.53;;;;;;;;;;5071876;28;20041;-93
2022/11/01 13:25:13;;;;;;;7.22;6.80;;;;;;;;;;5066051;28;20056;-93
2022/11/01 13:27:43;;;;;;;6.80;6.38;;;;;;;;;;5076751;28;20052;-92
2022/11/01 13:30:11;;;;;;;7.57;7.10;;;;;;;;;;5059361;28;20107;-91
2022/11/01 13:32:44;;;;;;;7.35;6.78;;;;;;;;;;5056274;28;20107;-91
2022/11/01 13:35:31;;;;;;;6.78;6.15;;;;;;;;;;5056789;28;20136;-91
2022/11/01 13:38:02;;;;;;;8.95;8.45;;;;;;;;;;5071395;28;20101;-92
2022/11/01 13:40:30;;;;;;;7.28;6.88;;;;;;;;;;5058011;28;20044;-92
2022/11/01 13:43:01;;;;;;;7.38;6.88;;;;;;;;;;5072662;28;20045;-92
2022/11/01 13:45:57;;;;;;;8.55;7.88;;;;;;;;;;5075077;28;20102;-91
2022/11/01 13:48:30;;;;;;;6.47;6.03;;;;;;;;;;5013097;28;20057;-88
2022/11/01 13:51:07;;;;;;;5.55;5.25;;;;;;;;;;5013251;28;20390;-90
2022/11/01 13:53:39;;;;;;;6.45;5.95;;;;;;;;;;5025262;28;20045;-92
2022/11/01 13:56:08;;;;;;;7.70;7.18;;;;;;;;;;5007467;28;20129;-91
2022/11/01 13:58:35;;;;;;;6.40;5.88;;;;;;;;;;4996856;28;20054;-91
2022/11/01 14:01:17;;;;;;;8.68;5.75;;;;;;;;;;5013566;28;20045;-92
2022/11/01 14:03:43;;;;;;;8.25;7.65;;;;;;;;;;5001597;28;20434;-93
2022/11/01 14:06:29;;;;;;;8.60;7.80;;;;;;;;;;5015023;28;20108;-92
2022/11/01 14:09:14;;;;;;;6.15;5.65;;;;;;;;;;5010765;28;20064;-90
2022/11/01 14:11:47;;;;;;;8.10;7.60;;;;;;;;;;5013268;28;20057;-90
2022/11/01 14:14:35;;;;;;;6.28;5.30;;;;;;;;;;5011694;28;20046;-89
2022/11/01 14:17:16;;;;;;;6.70;5.45;;;;;;;;;;4992303;28;20104;-88
2022/11/01 14:19:43;;;;;;;6.13;5.72;;;;;;;;;;5000667;28;20750;-89
2022/11/01 14:22:26;;;;;;;5.13;4.55;;;;;;;;;;5032627;28;20420;-89
2022/11/01 14:24:53;;;;;;;4.25;3.80;;;;;;;;;;5057392;28;20094;-90
2022/11/01 14:27:32;;;;;;;5.25;4.82;;;;;;;;;;5083499;28;20060;-89
2022/11/01 14:29:59;;;;;;;4.65;3.53;;;;;;;;;;5061922;28;20103;-89
2022/11/01 14:32:30;;;;;;;6.68;5.43;;;;;;;;;;5053668;28;20103;-89
2022/11/01 14:35:00;;;;;;;5.15;4.57;;;;;;;;;;5058135;28;20053;-88
2022/11/01 14:37:28;;;;;;;6.57;6.20;;;;;;;;;;5059803;28;20072;-90
2022/11/01 14:39:57;;;;;;;5.95;5.45;;;;;;;;;;5071468;28;20090;-89
2022/11/01 14:42:26;;;;;;;6.05;5.60;;;;;;;;;;5064298;28;20048;-88
2022/11/01 14:44:55;;;;;;;5.78;5.38;;;;;;;;;;5065655;28;20049;-89
2022/11/01 14:47:33;;;;;;;8.90;5.18;;;;;;;;;;5070105;28;20049;-89
2022/11/01 14:50:02;;;;;;;6.57;6.18;;;;;;;;;;5072801;28;20081;-89
2022/11/01 14:52:33;;;;;;;5.00;4.25;;;;;;;;;;5074607;28;20052;-88
2022/11/01 14:55:04;;;;;;;5.35;5.00;;;;;;;;;;5059741;28;20076;-88
2022/11/01 14:57:33;;;;;;;5.43;5.03;;;;;;;;;;5067331;28;20041;-87
2022/11/01 15:00:19;;;;;;;5.63;5.10;;;;;;;;;;5066479;28;20045;-87
2022/11/01 15:02:46;;;;;;;5.22;4.18;;;;;;;;;;5080183;28;20615;-88